sensor_id;sensor_type;location;lat;lon;timestamp;temperature;humidity
18454;DHT22;9356;52.202;20.950;2024-03-29T00:00:55;10.80;99.90
18454;DHT22;9356;52.202;20.950;2024-03-29T00:01:57;10.80;99.90
18454;DHT22;9356;52.202;20.950;2024-03-29T00:02:59;10.90;99.90
18454;DHT22;9356;52.202;20.950;2024-03-29T00:04:03;10.90;99.90
18454;DHT22;9356;52.202;20.950;2024-03-29T00:05:06;10.80;99.90
18454;DHT22;9356;52.202;20.950;2024-03-29T00:06:09;10.80;99.90
18454;DHT22;9356;52.202;20.950;2024-03-29T00:07:11;10.70;99.90
18454;DHT22;9356;52.202;20.950;2024-03-29T00:08:13;10.70;99.90
18454;DHT22;9356;52.202;20.950;2024-03-29T00:09:15;10.70;99.90
18454;DHT22;9356;52.202;20.950;2024-03-29T00:10:17;10.60;99.90
18454;DHT22;9356;52.202;20.950;2024-03-29T00:11:19;10.60;99.90
18454;DHT22;9356;52.202;20.950;2024-03-29T00:12:22;10.70;99.90
18454;DHT22;9356;52.202;20.950;2024-03-29T00:13:24;10.50;99.90
18454;DHT22;9356;52.202;20.950;2024-03-29T00:14:26;10.60;99.90
18454;DHT22;9356;52.202;20.950;2024-03-29T00:15:28;10.70;99.90
18454;DHT22;9356;52.202;20.950;2024-03-29T00:16:30;10.40;99.90
18454;DHT22;9356;52.202;20.950;2024-03-29T00:17:31;9.80;99.90
18454;DHT22;9356;52.202;20.950;2024-03-29T00:18:33;10.50;99.90
18454;DHT22;9356;52.202;20.950;2024-03-29T00:19:35;10.50;99.90
18454;DHT22;9356;52.202;20.950;2024-03-29T00:20:37;10.50;99.90
18454;DHT22;9356;52.202;20.950;2024-03-29T00:21:39;10.60;99.90
18454;DHT22;9356;52.202;20.950;2024-03-29T00:22:41;10.80;99.90
18454;DHT22;9356;52.202;20.950;2024-03-29T00:23:42;10.50;99.90
18454;DHT22;9356;52.202;20.950;2024-03-29T00:24:46;10.40;99.90
18454;DHT22;9356;52.202;20.950;2024-03-29T00:25:53;10.50;99.90
18454;DHT22;9356;52.202;20.950;2024-03-29T00:26:55;10.40;99.90
18454;DHT22;9356;52.202;20.950;2024-03-29T00:28:07;10.50;99.90
18454;DHT22;9356;52.202;20.950;2024-03-29T00:29:09;10.60;99.90
18454;DHT22;9356;52.202;20.950;2024-03-29T00:30:12;10.30;99.90
18454;DHT22;9356;52.202;20.950;2024-03-29T00:31:13;10.70;99.90
18454;DHT22;9356;52.202;20.950;2024-03-29T00:32:15;10.40;99.90
18454;DHT22;9356;52.202;20.950;2024-03-29T00:33:17;10.40;99.90
18454;DHT22;9356;52.202;20.950;2024-03-29T00:34:19;10.50;99.90
18454;DHT22;9356;52.202;20.950;2024-03-29T00:35:21;10.50;99.90
18454;DHT22;9356;52.202;20.950;2024-03-29T00:36:26;10.50;99.90
18454;DHT22;9356;52.202;20.950;2024-03-29T00:37:29;10.60;99.90
18454;DHT22;9356;52.202;20.950;2024-03-29T00:38:30;10.50;99.90
18454;DHT22;9356;52.202;20.950;2024-03-29T00:39:32;10.50;99.90
18454;DHT22;9356;52.202;20.950;2024-03-29T00:40:37;10.50;99.90
18454;DHT22;9356;52.202;20.950;2024-03-29T00:41:39;10.40;99.90
18454;DHT22;9356;52.202;20.950;2024-03-29T00:42:44;10.40;99.90
18454;DHT22;9356;52.202;20.950;2024-03-29T00:43:48;10.40;99.90
18454;DHT22;9356;52.202;20.950;2024-03-29T00:44:51;10.40;99.90
18454;DHT22;9356;52.202;20.950;2024-03-29T00:45:54;10.50;99.90
18454;DHT22;9356;52.202;20.950;2024-03-29T00:46:57;10.40;99.90
18454;DHT22;9356;52.202;20.950;2024-03-29T00:48:01;10.50;99.90
18454;DHT22;9356;52.202;20.950;2024-03-29T00:49:05;10.50;99.90
18454;DHT22;9356;52.202;20.950;2024-03-29T00:50:08;10.30;99.90
18454;DHT22;9356;52.202;20.950;2024-03-29T00:51:10;10.90;99.90
18454;DHT22;9356;52.202;20.950;2024-03-29T00:52:15;10.50;99.90
18454;DHT22;9356;52.202;20.950;2024-03-29T00:53:24;10.60;99.90
18454;DHT22;9356;52.202;20.950;2024-03-29T00:54:26;11.40;99.90
18454;DHT22;9356;52.202;20.950;2024-03-29T00:55:28;10.60;99.90
18454;DHT22;9356;52.202;20.950;2024-03-29T00:56:29;10.60;99.90
18454;DHT22;9356;52.202;20.950;2024-03-29T00:57:31;10.40;99.90
18454;DHT22;9356;52.202;20.950;2024-03-29T00:58:33;10.60;99.90
18454;DHT22;9356;52.202;20.950;2024-03-29T00:59:38;10.60;99.90
18454;DHT22;9356;52.202;20.950;2024-03-29T01:00:40;10.60;99.90
18454;DHT22;9356;52.202;20.950;2024-03-29T01:01:43;10.60;99.90
18454;DHT22;9356;52.202;20.950;2024-03-29T01:02:45;10.60;99.90
18454;DHT22;9356;52.202;20.950;2024-03-29T01:03:47;10.40;99.90
18454;DHT22;9356;52.202;20.950;2024-03-29T01:04:49;10.40;99.90
18454;DHT22;9356;52.202;20.950;2024-03-29T01:05:51;10.40;99.90
18454;DHT22;9356;52.202;20.950;2024-03-29T01:06:53;10.40;99.90
18454;DHT22;9356;52.202;20.950;2024-03-29T01:07:55;10.50;99.90
18454;DHT22;9356;52.202;20.950;2024-03-29T01:08:57;10.50;99.90
18454;DHT22;9356;52.202;20.950;2024-03-29T01:09:58;10.30;99.90
18454;DHT22;9356;52.202;20.950;2024-03-29T01:11:00;10.40;99.90
18454;DHT22;9356;52.202;20.950;2024-03-29T01:12:02;10.30;99.90
18454;DHT22;9356;52.202;20.950;2024-03-29T01:13:06;10.30;99.90
18454;DHT22;9356;52.202;20.950;2024-03-29T01:14:08;10.30;99.90
18454;DHT22;9356;52.202;20.950;2024-03-29T01:15:12;10.30;99.90
18454;DHT22;9356;52.202;20.950;2024-03-29T01:16:13;10.20;99.90
18454;DHT22;9356;52.202;20.950;2024-03-29T01:17:15;10.30;99.90
18454;DHT22;9356;52.202;20.950;2024-03-29T01:18:17;10.20;99.90
18454;DHT22;9356;52.202;20.950;2024-03-29T01:19:19;10.20;99.90
18454;DHT22;9356;52.202;20.950;2024-03-29T01:20:20;10.20;99.90
18454;DHT22;9356;52.202;20.950;2024-03-29T01:21:22;10.30;99.90
18454;DHT22;9356;52.202;20.950;2024-03-29T01:22:25;11.50;99.90
18454;DHT22;9356;52.202;20.950;2024-03-29T01:23:26;10.30;99.90
18454;DHT22;9356;52.202;20.950;2024-03-29T01:24:30;10.30;99.90
18454;DHT22;9356;52.202;20.950;2024-03-29T01:25:32;10.40;99.90
18454;DHT22;9356;52.202;20.950;2024-03-29T01:26:34;10.30;99.90
18454;DHT22;9356;52.202;20.950;2024-03-29T01:27:36;10.40;99.90
18454;DHT22;9356;52.202;20.950;2024-03-29T01:28:38;10.40;99.90
18454;DHT22;9356;52.202;20.950;2024-03-29T01:29:40;10.40;99.90
18454;DHT22;9356;52.202;20.950;2024-03-29T01:30:44;10.30;99.90
18454;DHT22;9356;52.202;20.950;2024-03-29T01:31:52;11.00;99.90
18454;DHT22;9356;52.202;20.950;2024-03-29T01:32:54;10.40;99.90
18454;DHT22;9356;52.202;20.950;2024-03-29T01:33:56;10.40;99.90
18454;DHT22;9356;52.202;20.950;2024-03-29T01:34:58;10.50;99.90
18454;DHT22;9356;52.202;20.950;2024-03-29T01:36:00;10.40;99.90
18454;DHT22;9356;52.202;20.950;2024-03-29T01:37:02;10.40;99.90
18454;DHT22;9356;52.202;20.950;2024-03-29T01:38:04;10.40;99.90
18454;DHT22;9356;52.202;20.950;2024-03-29T01:39:06;10.40;99.90
18454;DHT22;9356;52.202;20.950;2024-03-29T01:40:11;10.40;99.90
18454;DHT22;9356;52.202;20.950;2024-03-29T01:41:13;10.40;99.90
18454;DHT22;9356;52.202;20.950;2024-03-29T01:42:14;10.40;99.90
18454;DHT22;9356;52.202;20.950;2024-03-29T01:43:16;10.40;99.90
18454;DHT22;9356;52.202;20.950;2024-03-29T01:44:20;10.50;99.90
18454;DHT22;9356;52.202;20.950;2024-03-29T01:45:22;10.50;99.90
18454;DHT22;9356;52.202;20.950;2024-03-29T01:46:29;10.50;99.90
18454;DHT22;9356;52.202;20.950;2024-03-29T01:47:31;10.60;99.90
18454;DHT22;9356;52.202;20.950;2024-03-29T01:48:35;10.60;99.90
18454;DHT22;9356;52.202;20.950;2024-03-29T01:49:37;10.60;99.90
18454;DHT22;9356;52.202;20.950;2024-03-29T01:50:40;10.60;99.90
18454;DHT22;9356;52.202;20.950;2024-03-29T01:51:44;10.50;99.90
18454;DHT22;9356;52.202;20.950;2024-03-29T01:52:48;10.50;99.90
18454;DHT22;9356;52.202;20.950;2024-03-29T01:53:55;10.50;99.90
18454;DHT22;9356;52.202;20.950;2024-03-29T01:54:58;10.50;99.90
18454;DHT22;9356;52.202;20.950;2024-03-29T01:56:00;10.60;99.90
18454;DHT22;9356;52.202;20.950;2024-03-29T01:57:05;10.50;99.90
18454;DHT22;9356;52.202;20.950;2024-03-29T01:58:08;10.50;99.90
18454;DHT22;9356;52.202;20.950;2024-03-29T01:59:16;10.50;99.90
18454;DHT22;9356;52.202;20.950;2024-03-29T02:00:20;10.60;99.90
18454;DHT22;9356;52.202;20.950;2024-03-29T02:01:24;10.60;99.90
18454;DHT22;9356;52.202;20.950;2024-03-29T02:02:31;10.60;99.90
18454;DHT22;9356;52.202;20.950;2024-03-29T02:03:33;10.60;99.90
18454;DHT22;9356;52.202;20.950;2024-03-29T02:04:36;10.60;99.90
18454;DHT22;9356;52.202;20.950;2024-03-29T02:05:40;10.50;99.90
18454;DHT22;9356;52.202;20.950;2024-03-29T02:06:43;10.50;99.90
18454;DHT22;9356;52.202;20.950;2024-03-29T02:07:46;10.60;99.90
18454;DHT22;9356;52.202;20.950;2024-03-29T02:08:54;10.50;99.90
18454;DHT22;9356;52.202;20.950;2024-03-29T02:09:56;10.50;99.90
18454;DHT22;9356;52.202;20.950;2024-03-29T02:10:59;10.50;99.90
18454;DHT22;9356;52.202;20.950;2024-03-29T02:12:02;11.70;99.90
18454;DHT22;9356;52.202;20.950;2024-03-29T02:13:08;10.60;99.90
18454;DHT22;9356;52.202;20.950;2024-03-29T02:14:11;10.70;99.90
18454;DHT22;9356;52.202;20.950;2024-03-29T02:15:19;10.70;99.90
18454;DHT22;9356;52.202;20.950;2024-03-29T02:16:28;10.70;99.90
18454;DHT22;9356;52.202;20.950;2024-03-29T02:17:37;10.70;99.90
18454;DHT22;9356;52.202;20.950;2024-03-29T02:18:46;10.60;99.90
18454;DHT22;9356;52.202;20.950;2024-03-29T02:19:48;10.60;99.90
18454;DHT22;9356;52.202;20.950;2024-03-29T02:20:53;10.70;99.90
18454;DHT22;9356;52.202;20.950;2024-03-29T02:22:06;10.60;99.90
18454;DHT22;9356;52.202;20.950;2024-03-29T02:23:20;10.70;99.90
18454;DHT22;9356;52.202;20.950;2024-03-29T02:24:30;10.70;99.90
18454;DHT22;9356;52.202;20.950;2024-03-29T02:25:35;10.80;99.90
18454;DHT22;9356;52.202;20.950;2024-03-29T02:26:45;10.70;99.90
18454;DHT22;9356;52.202;20.950;2024-03-29T02:27:55;10.60;99.90
18454;DHT22;9356;52.202;20.950;2024-03-29T02:29:04;10.60;99.90
18454;DHT22;9356;52.202;20.950;2024-03-29T02:30:13;10.50;99.90
18454;DHT22;9356;52.202;20.950;2024-03-29T02:34:07;10.60;99.90
18454;DHT22;9356;52.202;20.950;2024-03-29T02:35:12;10.60;99.90
18454;DHT22;9356;52.202;20.950;2024-03-29T02:36:16;10.70;99.90
18454;DHT22;9356;52.202;20.950;2024-03-29T02:37:19;10.70;99.90
18454;DHT22;9356;52.202;20.950;2024-03-29T02:38:22;10.60;99.90
18454;DHT22;9356;52.202;20.950;2024-03-29T02:39:24;10.70;99.90
18454;DHT22;9356;52.202;20.950;2024-03-29T02:40:28;10.70;99.90
18454;DHT22;9356;52.202;20.950;2024-03-29T02:41:30;10.70;99.90
18454;DHT22;9356;52.202;20.950;2024-03-29T02:42:33;10.70;99.90
18454;DHT22;9356;52.202;20.950;2024-03-29T02:43:35;10.70;99.90
18454;DHT22;9356;52.202;20.950;2024-03-29T02:44:36;10.70;99.90
18454;DHT22;9356;52.202;20.950;2024-03-29T02:45:39;10.70;99.90
18454;DHT22;9356;52.202;20.950;2024-03-29T02:46:41;10.80;99.90
18454;DHT22;9356;52.202;20.950;2024-03-29T02:47:44;10.80;99.90
18454;DHT22;9356;52.202;20.950;2024-03-29T02:48:46;10.80;99.90
18454;DHT22;9356;52.202;20.950;2024-03-29T02:49:47;10.60;99.90
18454;DHT22;9356;52.202;20.950;2024-03-29T02:50:49;10.50;99.90
18454;DHT22;9356;52.202;20.950;2024-03-29T02:51:52;11.40;99.90
18454;DHT22;9356;52.202;20.950;2024-03-29T02:52:54;10.60;99.90
18454;DHT22;9356;52.202;20.950;2024-03-29T02:53:56;10.60;99.90
18454;DHT22;9356;52.202;20.950;2024-03-29T02:54:59;10.60;99.90
18454;DHT22;9356;52.202;20.950;2024-03-29T02:56:03;10.60;99.90
18454;DHT22;9356;52.202;20.950;2024-03-29T02:57:04;10.60;99.90
18454;DHT22;9356;52.202;20.950;2024-03-29T02:58:06;10.40;99.90
18454;DHT22;9356;52.202;20.950;2024-03-29T02:59:11;10.40;99.90
18454;DHT22;9356;52.202;20.950;2024-03-29T03:00:14;10.40;99.90
18454;DHT22;9356;52.202;20.950;2024-03-29T03:01:16;10.40;99.90
18454;DHT22;9356;52.202;20.950;2024-03-29T03:02:17;9.50;99.90
18454;DHT22;9356;52.202;20.950;2024-03-29T03:03:26;10.30;99.90
18454;DHT22;9356;52.202;20.950;2024-03-29T03:04:28;10.40;99.90
18454;DHT22;9356;52.202;20.950;2024-03-29T03:05:30;10.40;99.90
18454;DHT22;9356;52.202;20.950;2024-03-29T03:06:32;10.40;99.90
18454;DHT22;9356;52.202;20.950;2024-03-29T03:07:35;10.40;99.90
18454;DHT22;9356;52.202;20.950;2024-03-29T03:08:57;10.30;99.90
18454;DHT22;9356;52.202;20.950;2024-03-29T03:10:18;10.40;99.90
18454;DHT22;9356;52.202;20.950;2024-03-29T03:11:40;10.30;99.90
18454;DHT22;9356;52.202;20.950;2024-03-29T03:12:43;10.30;99.90
18454;DHT22;9356;52.202;20.950;2024-03-29T03:13:45;10.30;99.90
18454;DHT22;9356;52.202;20.950;2024-03-29T03:14:47;10.20;99.90
18454;DHT22;9356;52.202;20.950;2024-03-29T03:15:49;10.30;99.90
18454;DHT22;9356;52.202;20.950;2024-03-29T03:16:52;10.40;99.90
18454;DHT22;9356;52.202;20.950;2024-03-29T03:17:54;10.40;99.90
18454;DHT22;9356;52.202;20.950;2024-03-29T03:18:56;11.20;99.90
18454;DHT22;9356;52.202;20.950;2024-03-29T03:20:01;10.40;99.90
18454;DHT22;9356;52.202;20.950;2024-03-29T03:21:03;10.40;99.90
18454;DHT22;9356;52.202;20.950;2024-03-29T03:22:07;10.30;99.90
18454;DHT22;9356;52.202;20.950;2024-03-29T03:23:19;10.40;99.90
18454;DHT22;9356;52.202;20.950;2024-03-29T03:24:35;10.30;99.90
18454;DHT22;9356;52.202;20.950;2024-03-29T03:25:46;10.20;99.90
18454;DHT22;9356;52.202;20.950;2024-03-29T03:26:50;10.20;99.90
18454;DHT22;9356;52.202;20.950;2024-03-29T03:27:52;10.20;99.90
18454;DHT22;9356;52.202;20.950;2024-03-29T03:28:55;10.10;99.90
18454;DHT22;9356;52.202;20.950;2024-03-29T03:29:56;10.20;99.90
18454;DHT22;9356;52.202;20.950;2024-03-29T03:30:58;10.20;99.90
18454;DHT22;9356;52.202;20.950;2024-03-29T03:32:00;10.20;99.90
18454;DHT22;9356;52.202;20.950;2024-03-29T03:33:03;10.20;99.90
18454;DHT22;9356;52.202;20.950;2024-03-29T03:34:05;10.20;99.90
18454;DHT22;9356;52.202;20.950;2024-03-29T03:35:08;10.10;99.90
18454;DHT22;9356;52.202;20.950;2024-03-29T03:36:09;10.10;99.90
18454;DHT22;9356;52.202;20.950;2024-03-29T03:37:12;10.10;99.90
18454;DHT22;9356;52.202;20.950;2024-03-29T03:38:16;10.20;99.90
18454;DHT22;9356;52.202;20.950;2024-03-29T03:39:18;10.20;99.90
18454;DHT22;9356;52.202;20.950;2024-03-29T03:40:19;10.20;99.90
18454;DHT22;9356;52.202;20.950;2024-03-29T03:41:22;10.30;99.90
18454;DHT22;9356;52.202;20.950;2024-03-29T03:42:28;10.30;99.90
18454;DHT22;9356;52.202;20.950;2024-03-29T03:43:31;10.30;99.90
18454;DHT22;9356;52.202;20.950;2024-03-29T03:44:32;10.20;99.90
18454;DHT22;9356;52.202;20.950;2024-03-29T03:45:36;10.20;99.90
18454;DHT22;9356;52.202;20.950;2024-03-29T03:46:38;10.20;99.90
18454;DHT22;9356;52.202;20.950;2024-03-29T03:47:40;10.20;99.90
18454;DHT22;9356;52.202;20.950;2024-03-29T03:48:44;10.20;99.90
18454;DHT22;9356;52.202;20.950;2024-03-29T03:49:50;10.00;99.90
18454;DHT22;9356;52.202;20.950;2024-03-29T03:50:55;10.10;99.90
18454;DHT22;9356;52.202;20.950;2024-03-29T03:51:57;10.00;99.90
18454;DHT22;9356;52.202;20.950;2024-03-29T03:52:59;10.00;99.90
18454;DHT22;9356;52.202;20.950;2024-03-29T03:54:03;10.00;99.90
18454;DHT22;9356;52.202;20.950;2024-03-29T03:55:05;10.00;99.90
18454;DHT22;9356;52.202;20.950;2024-03-29T03:56:07;10.00;99.90
18454;DHT22;9356;52.202;20.950;2024-03-29T03:57:09;10.00;99.90
18454;DHT22;9356;52.202;20.950;2024-03-29T03:58:15;10.10;99.90
18454;DHT22;9356;52.202;20.950;2024-03-29T03:59:18;10.10;99.90
18454;DHT22;9356;52.202;20.950;2024-03-29T04:00:20;10.20;99.90
18454;DHT22;9356;52.202;20.950;2024-03-29T04:01:24;10.20;99.90
18454;DHT22;9356;52.202;20.950;2024-03-29T04:02:26;10.20;99.90
18454;DHT22;9356;52.202;20.950;2024-03-29T04:03:28;10.20;99.90
18454;DHT22;9356;52.202;20.950;2024-03-29T04:04:31;10.10;99.90
18454;DHT22;9356;52.202;20.950;2024-03-29T04:05:39;10.10;99.90
18454;DHT22;9356;52.202;20.950;2024-03-29T04:06:55;10.10;99.90
18454;DHT22;9356;52.202;20.950;2024-03-29T04:08:09;10.00;99.90
18454;DHT22;9356;52.202;20.950;2024-03-29T04:09:14;10.00;99.90
18454;DHT22;9356;52.202;20.950;2024-03-29T04:10:23;10.00;99.90
18454;DHT22;9356;52.202;20.950;2024-03-29T04:11:56;10.10;99.90
18454;DHT22;9356;52.202;20.950;2024-03-29T04:12:59;10.00;99.90
18454;DHT22;9356;52.202;20.950;2024-03-29T04:14:02;10.00;99.90
18454;DHT22;9356;52.202;20.950;2024-03-29T04:15:05;9.90;99.90
18454;DHT22;9356;52.202;20.950;2024-03-29T04:16:09;9.90;99.90
18454;DHT22;9356;52.202;20.950;2024-03-29T04:17:12;9.90;99.90
18454;DHT22;9356;52.202;20.950;2024-03-29T04:18:14;9.90;99.90
18454;DHT22;9356;52.202;20.950;2024-03-29T04:19:17;9.90;99.90
18454;DHT22;9356;52.202;20.950;2024-03-29T04:20:19;9.90;99.90
18454;DHT22;9356;52.202;20.950;2024-03-29T04:21:20;9.90;99.90
18454;DHT22;9356;52.202;20.950;2024-03-29T04:22:22;9.90;99.90
18454;DHT22;9356;52.202;20.950;2024-03-29T04:23:25;9.90;99.90
18454;DHT22;9356;52.202;20.950;2024-03-29T04:24:28;9.90;99.90
18454;DHT22;9356;52.202;20.950;2024-03-29T04:25:30;9.90;99.90
18454;DHT22;9356;52.202;20.950;2024-03-29T04:26:32;10.00;99.90
18454;DHT22;9356;52.202;20.950;2024-03-29T04:27:33;10.00;99.90
18454;DHT22;9356;52.202;20.950;2024-03-29T04:28:36;9.90;99.90
18454;DHT22;9356;52.202;20.950;2024-03-29T04:29:40;9.90;99.90
18454;DHT22;9356;52.202;20.950;2024-03-29T04:30:54;9.90;99.90
18454;DHT22;9356;52.202;20.950;2024-03-29T04:31:56;9.90;99.90
18454;DHT22;9356;52.202;20.950;2024-03-29T04:32:59;9.90;99.90
18454;DHT22;9356;52.202;20.950;2024-03-29T04:34:00;9.90;99.90
18454;DHT22;9356;52.202;20.950;2024-03-29T04:35:03;9.80;99.90
18454;DHT22;9356;52.202;20.950;2024-03-29T04:36:07;9.70;99.90
18454;DHT22;9356;52.202;20.950;2024-03-29T04:37:09;9.80;99.90
18454;DHT22;9356;52.202;20.950;2024-03-29T04:38:11;9.80;99.90
18454;DHT22;9356;52.202;20.950;2024-03-29T04:39:14;9.80;99.90
18454;DHT22;9356;52.202;20.950;2024-03-29T04:40:16;9.80;99.90
18454;DHT22;9356;52.202;20.950;2024-03-29T04:41:18;9.70;99.90
18454;DHT22;9356;52.202;20.950;2024-03-29T04:42:21;9.70;99.90
18454;DHT22;9356;52.202;20.950;2024-03-29T04:43:25;10.00;99.90
18454;DHT22;9356;52.202;20.950;2024-03-29T04:44:28;9.70;99.90
18454;DHT22;9356;52.202;20.950;2024-03-29T04:45:32;9.70;99.90
18454;DHT22;9356;52.202;20.950;2024-03-29T04:46:35;9.60;99.90
18454;DHT22;9356;52.202;20.950;2024-03-29T04:47:37;9.60;99.90
18454;DHT22;9356;52.202;20.950;2024-03-29T04:48:41;9.60;99.90
18454;DHT22;9356;52.202;20.950;2024-03-29T04:49:43;9.60;99.90
18454;DHT22;9356;52.202;20.950;2024-03-29T04:50:46;9.60;99.90
18454;DHT22;9356;52.202;20.950;2024-03-29T04:51:48;9.60;99.90
18454;DHT22;9356;52.202;20.950;2024-03-29T04:52:51;9.70;99.90
18454;DHT22;9356;52.202;20.950;2024-03-29T04:53:53;9.60;99.90
18454;DHT22;9356;52.202;20.950;2024-03-29T04:54:55;9.60;99.90
18454;DHT22;9356;52.202;20.950;2024-03-29T04:55:58;9.60;99.90
18454;DHT22;9356;52.202;20.950;2024-03-29T04:57:00;7.80;99.90
18454;DHT22;9356;52.202;20.950;2024-03-29T04:58:03;9.50;99.90
18454;DHT22;9356;52.202;20.950;2024-03-29T04:59:08;9.30;99.90
18454;DHT22;9356;52.202;20.950;2024-03-29T05:00:12;9.30;99.90
18454;DHT22;9356;52.202;20.950;2024-03-29T05:01:17;9.30;99.90
18454;DHT22;9356;52.202;20.950;2024-03-29T05:02:22;9.30;99.90
18454;DHT22;9356;52.202;20.950;2024-03-29T05:03:26;9.30;99.90
18454;DHT22;9356;52.202;20.950;2024-03-29T05:04:28;9.30;99.90
18454;DHT22;9356;52.202;20.950;2024-03-29T05:05:31;9.40;99.90
18454;DHT22;9356;52.202;20.950;2024-03-29T05:06:33;9.40;99.90
18454;DHT22;9356;52.202;20.950;2024-03-29T05:07:35;9.60;99.90
18454;DHT22;9356;52.202;20.950;2024-03-29T05:08:38;10.10;99.90
18454;DHT22;9356;52.202;20.950;2024-03-29T05:09:40;11.40;99.90
18454;DHT22;9356;52.202;20.950;2024-03-29T05:10:43;12.30;99.90
18454;DHT22;9356;52.202;20.950;2024-03-29T05:11:45;13.50;99.90
18454;DHT22;9356;52.202;20.950;2024-03-29T05:12:48;14.50;97.10
18454;DHT22;9356;52.202;20.950;2024-03-29T05:13:51;15.30;94.10
18454;DHT22;9356;52.202;20.950;2024-03-29T05:14:54;15.80;91.40
18454;DHT22;9356;52.202;20.950;2024-03-29T05:15:56;16.30;88.30
18454;DHT22;9356;52.202;20.950;2024-03-29T05:17:00;16.60;85.30
18454;DHT22;9356;52.202;20.950;2024-03-29T05:18:03;16.60;83.40
18454;DHT22;9356;52.202;20.950;2024-03-29T05:19:04;16.50;79.50
18454;DHT22;9356;52.202;20.950;2024-03-29T05:20:08;16.10;80.00
18454;DHT22;9356;52.202;20.950;2024-03-29T05:21:10;15.80;82.50
18454;DHT22;9356;52.202;20.950;2024-03-29T05:22:13;15.60;84.30
18454;DHT22;9356;52.202;20.950;2024-03-29T05:23:16;15.30;85.70
18454;DHT22;9356;52.202;20.950;2024-03-29T05:24:19;15.20;83.90
18454;DHT22;9356;52.202;20.950;2024-03-29T05:25:22;15.00;86.90
18454;DHT22;9356;52.202;20.950;2024-03-29T05:26:26;15.10;86.70
18454;DHT22;9356;52.202;20.950;2024-03-29T05:27:30;15.10;86.70
18454;DHT22;9356;52.202;20.950;2024-03-29T05:28:38;15.10;86.20
18454;DHT22;9356;52.202;20.950;2024-03-29T05:29:41;15.20;86.00
18454;DHT22;9356;52.202;20.950;2024-03-29T05:30:44;15.40;85.90
18454;DHT22;9356;52.202;20.950;2024-03-29T05:31:47;15.50;85.20
18454;DHT22;9356;52.202;20.950;2024-03-29T05:32:50;15.50;84.10
18454;DHT22;9356;52.202;20.950;2024-03-29T05:33:53;15.60;82.40
18454;DHT22;9356;52.202;20.950;2024-03-29T05:34:56;15.60;83.50
18454;DHT22;9356;52.202;20.950;2024-03-29T05:35:59;15.70;82.00
18454;DHT22;9356;52.202;20.950;2024-03-29T05:37:01;15.90;82.60
18454;DHT22;9356;52.202;20.950;2024-03-29T05:38:03;16.10;81.40
18454;DHT22;9356;52.202;20.950;2024-03-29T05:39:06;16.10;79.00
18454;DHT22;9356;52.202;20.950;2024-03-29T05:40:08;16.10;78.30
18454;DHT22;9356;52.202;20.950;2024-03-29T05:41:12;16.10;78.60
18454;DHT22;9356;52.202;20.950;2024-03-29T05:42:14;16.30;79.30
18454;DHT22;9356;52.202;20.950;2024-03-29T05:43:17;16.20;77.50
18454;DHT22;9356;52.202;20.950;2024-03-29T05:44:19;16.30;77.10
18454;DHT22;9356;52.202;20.950;2024-03-29T05:45:25;16.40;77.80
18454;DHT22;9356;52.202;20.950;2024-03-29T05:46:28;16.50;77.50
18454;DHT22;9356;52.202;20.950;2024-03-29T05:47:30;16.50;76.80
18454;DHT22;9356;52.202;20.950;2024-03-29T05:48:34;16.20;75.00
18454;DHT22;9356;52.202;20.950;2024-03-29T05:49:36;16.10;75.20
18454;DHT22;9356;52.202;20.950;2024-03-29T05:50:39;16.20;76.30
18454;DHT22;9356;52.202;20.950;2024-03-29T05:51:40;16.40;76.50
18454;DHT22;9356;52.202;20.950;2024-03-29T05:52:43;16.60;75.50
18454;DHT22;9356;52.202;20.950;2024-03-29T05:53:45;16.60;73.50
18454;DHT22;9356;52.202;20.950;2024-03-29T05:54:49;16.80;74.70
18454;DHT22;9356;52.202;20.950;2024-03-29T05:55:52;17.00;73.30
18454;DHT22;9356;52.202;20.950;2024-03-29T05:56:53;17.10;72.70
18454;DHT22;9356;52.202;20.950;2024-03-29T05:57:56;17.30;71.80
18454;DHT22;9356;52.202;20.950;2024-03-29T05:58:58;17.40;72.30
18454;DHT22;9356;52.202;20.950;2024-03-29T06:00:01;17.50;71.60
18454;DHT22;9356;52.202;20.950;2024-03-29T06:01:05;17.50;71.40
18454;DHT22;9356;52.202;20.950;2024-03-29T06:02:08;17.70;71.20
18454;DHT22;9356;52.202;20.950;2024-03-29T06:03:11;17.80;71.00
18454;DHT22;9356;52.202;20.950;2024-03-29T06:04:14;18.00;69.30
18454;DHT22;9356;52.202;20.950;2024-03-29T06:05:21;17.50;69.90
18454;DHT22;9356;52.202;20.950;2024-03-29T06:06:25;17.60;69.50
18454;DHT22;9356;52.202;20.950;2024-03-29T06:07:28;17.00;68.90
18454;DHT22;9356;52.202;20.950;2024-03-29T06:08:37;17.10;70.30
18454;DHT22;9356;52.202;20.950;2024-03-29T06:09:40;16.90;70.00
18454;DHT22;9356;52.202;20.950;2024-03-29T06:10:41;17.00;69.80
18454;DHT22;9356;52.202;20.950;2024-03-29T06:11:44;17.10;69.40
18454;DHT22;9356;52.202;20.950;2024-03-29T06:12:47;17.20;70.00
18454;DHT22;9356;52.202;20.950;2024-03-29T06:13:48;17.40;69.80
18454;DHT22;9356;52.202;20.950;2024-03-29T06:15:09;17.60;68.30
18454;DHT22;9356;52.202;20.950;2024-03-29T06:16:29;17.40;68.70
18454;DHT22;9356;52.202;20.950;2024-03-29T06:17:49;17.60;67.80
18454;DHT22;9356;52.202;20.950;2024-03-29T06:18:52;17.60;69.10
18454;DHT22;9356;52.202;20.950;2024-03-29T06:19:56;17.70;69.30
18454;DHT22;9356;52.202;20.950;2024-03-29T06:20:59;17.70;67.40
18454;DHT22;9356;52.202;20.950;2024-03-29T06:22:01;17.60;66.90
18454;DHT22;9356;52.202;20.950;2024-03-29T06:23:03;17.50;68.50
18454;DHT22;9356;52.202;20.950;2024-03-29T06:24:08;17.80;67.80
18454;DHT22;9356;52.202;20.950;2024-03-29T06:25:10;18.00;66.90
18454;DHT22;9356;52.202;20.950;2024-03-29T06:26:12;17.90;65.90
18454;DHT22;9356;52.202;20.950;2024-03-29T06:27:14;17.50;66.40
18454;DHT22;9356;52.202;20.950;2024-03-29T06:28:19;17.60;66.90
18454;DHT22;9356;52.202;20.950;2024-03-29T06:29:20;17.70;66.10
18454;DHT22;9356;52.202;20.950;2024-03-29T06:30:23;17.80;66.50
18454;DHT22;9356;52.202;20.950;2024-03-29T06:31:25;18.00;67.50
18454;DHT22;9356;52.202;20.950;2024-03-29T06:32:28;18.00;65.50
18454;DHT22;9356;52.202;20.950;2024-03-29T06:33:30;18.00;65.20
18454;DHT22;9356;52.202;20.950;2024-03-29T06:34:33;17.90;65.20
18454;DHT22;9356;52.202;20.950;2024-03-29T06:35:36;17.50;64.30
18454;DHT22;9356;52.202;20.950;2024-03-29T06:36:39;17.20;66.20
18454;DHT22;9356;52.202;20.950;2024-03-29T06:37:41;17.50;66.10
18454;DHT22;9356;52.202;20.950;2024-03-29T06:38:44;17.40;65.00
18454;DHT22;9356;52.202;20.950;2024-03-29T06:39:46;17.60;66.00
18454;DHT22;9356;52.202;20.950;2024-03-29T06:40:49;16.80;65.40
18454;DHT22;9356;52.202;20.950;2024-03-29T06:41:51;17.50;65.20
18454;DHT22;9356;52.202;20.950;2024-03-29T06:42:54;17.80;65.60
18454;DHT22;9356;52.202;20.950;2024-03-29T06:43:57;18.00;65.30
18454;DHT22;9356;52.202;20.950;2024-03-29T06:45:00;18.20;64.70
18454;DHT22;9356;52.202;20.950;2024-03-29T06:46:03;18.40;64.50